Edson, South Dakota
Current Conditions -  °F | °C
As of 10:55 AM on Monday 22 Dec 2014 (Local Time) from KPHP Reporting Station
Overcast Overcast  
Wind Chill: 29°   Ceiling: 3400
Heat Index: 40°   Visibility: 10mi
Dew Point: 28°   Wind: 24mph
Humidity: 63%   Direction: 310°NW
Pressure: 29.5"   Gusts: 31mph
Location:  44.8511°N, 102.128°W
Report Text: KPHP 221755Z AUTO 31021G27KT 10SM OVC034 04/M02 A2950 RMK AO2 PK WND 31032/1657 SLP996 T00441022 10044 20039 58007
Loading
Personal Weather Stations






























Interactive Weather Map New forecast layout! Learn more

10-Day Weather Forecast

Advertisements
Track Severe Weather on mobile